createdAt,value
2022-12-04T00:03:08.603Z,97461.29
2022-12-04T00:13:12.493Z,97458.95
2022-12-04T00:23:16.458Z,97462.63
2022-12-04T00:33:20.123Z,97474.15
2022-12-04T00:43:24.935Z,97467.48
2022-12-04T00:53:28.581Z,97470.90
2022-12-04T01:03:32.782Z,97461.20
2022-12-04T01:13:36.723Z,97454.40
2022-12-04T01:23:40.905Z,97448.42
2022-12-04T01:33:45.282Z,97438.95
2022-12-04T01:44:10.539Z,97430.83
2022-12-04T01:54:28.970Z,97422.91
2022-12-04T02:04:35.134Z,97411.13
2022-12-04T02:14:38.834Z,97399.98
2022-12-04T02:24:57.790Z,97393.14
2022-12-04T02:35:07.441Z,97389.50
2022-12-04T02:45:33.237Z,97393.02
2022-12-04T02:55:45.392Z,97392.84
2022-12-04T03:06:11.337Z,97401.59
2022-12-04T03:16:23.430Z,97397.23
2022-12-04T03:26:40.464Z,97394.91
2022-12-04T03:36:59.679Z,97395.84
2022-12-04T03:47:09.383Z,97396.96
2022-12-04T03:57:23.399Z,97397.39
2022-12-04T04:07:35.727Z,97391.41
2022-12-04T04:18:03.427Z,97386.73
2022-12-04T04:28:32.825Z,97386.73
2022-12-04T04:38:46.228Z,97377.51
2022-12-04T04:48:54.773Z,97377.59
2022-12-04T04:58:58.451Z,97383.67
2022-12-04T05:09:02.318Z,97392.38
2022-12-04T05:19:24.816Z,97395.84
2022-12-04T05:29:31.647Z,97395.27
2022-12-04T05:39:39.433Z,97393.04
2022-12-04T05:49:43.391Z,97398.35
2022-12-04T05:59:47.239Z,97393.29
2022-12-04T06:09:51.035Z,97401.46
2022-12-04T06:19:56.582Z,97404.05
2022-12-04T06:30:01.113Z,97411.53
2022-12-04T06:40:05.888Z,97399.45
2022-12-04T06:50:10.187Z,97406.73
2022-12-04T07:00:14.797Z,97410.54
2022-12-04T07:10:19.139Z,97416.73
2022-12-04T07:20:22.844Z,97414.39
2022-12-04T07:30:26.888Z,97405.75
2022-12-04T07:40:31.356Z,97399.02
2022-12-04T07:50:35.145Z,97382.82
2022-12-04T08:00:39.185Z,97389.73
2022-12-04T08:10:43.487Z,97394.50
2022-12-04T08:20:47.550Z,97394.65
2022-12-04T08:30:51.244Z,97399.98
2022-12-04T08:40:55.489Z,97395.59
2022-12-04T08:51:00.373Z,97393.23
2022-12-04T09:01:09.919Z,97401.63
2022-12-04T09:11:22.908Z,97399.73
2022-12-04T09:21:31.824Z,97397.73
2022-12-04T09:31:36.463Z,97392.20
2022-12-04T09:42:09.664Z,97387.07
2022-12-04T09:52:41.566Z,97368.50
2022-12-04T10:02:52.957Z,97356.16
2022-12-04T10:13:13.569Z,97338.77
2022-12-04T10:23:44.144Z,97324.92
2022-12-04T10:33:54.579Z,97314.48
2022-12-04T10:43:59.550Z,97298.57
2022-12-04T10:54:29.326Z,97283.79
2022-12-04T11:04:36.233Z,97275.88
2022-12-04T11:14:45.503Z,97265.83
2022-12-04T11:24:55.876Z,97263.90
2022-12-04T11:35:07.394Z,97250.38
2022-12-04T11:45:23.569Z,97247.67
2022-12-04T11:55:47.511Z,97249.08
2022-12-04T12:06:13.066Z,97259.91
2022-12-04T12:27:24.378Z,97245.70
2022-12-04T12:37:45.268Z,97240.39
2022-12-04T12:47:54.679Z,97230.61
2022-12-04T12:57:59.476Z,97233.66
2022-12-04T13:08:18.655Z,97235.25
2022-12-04T13:18:30.862Z,97240.53
2022-12-04T13:29:21.201Z,97241.30
2022-12-04T13:39:49.205Z,97244.90
2022-12-04T13:50:22.392Z,97246.62
2022-12-04T14:00:35.685Z,97252.38
2022-12-04T14:10:44.901Z,97257.39
2022-12-04T14:21:03.700Z,97256.65
2022-12-04T14:31:09.939Z,97268.10
2022-12-04T14:41:25.866Z,97271.29
2022-12-04T14:51:35.912Z,97266.44
2022-12-04T15:01:40.524Z,97261.98
2022-12-04T15:12:10.159Z,97261.77
2022-12-04T15:22:25.245Z,97264.77
2022-12-04T15:32:32.412Z,97263.95
2022-12-04T15:42:37.609Z,97264.55
2022-12-04T15:52:55.835Z,97271.96
2022-12-04T16:03:02.458Z,97279.59
2022-12-04T16:13:07.851Z,97289.40
2022-12-04T16:23:15.188Z,97300.89
2022-12-04T16:33:23.545Z,97289.52
2022-12-04T16:43:29.106Z,97281.44
2022-12-04T16:53:35.301Z,97280.13
2022-12-04T17:03:41.040Z,97285.44
2022-12-04T17:13:46.792Z,97272.67
2022-12-04T17:23:52.317Z,97270.13
2022-12-04T17:33:58.974Z,97284.62
2022-12-04T17:44:06.213Z,97285.33
2022-12-04T17:54:13.284Z,97281.27
2022-12-04T18:04:20.184Z,97284.20
2022-12-04T18:14:26.461Z,97290.65
2022-12-04T18:24:32.821Z,97290.54
2022-12-04T18:34:39.467Z,97289.92
2022-12-04T18:44:49.733Z,97291.43
2022-12-04T18:55:01.820Z,97289.14
2022-12-04T19:05:13.669Z,97290.17
2022-12-04T19:15:18.882Z,97291.11
2022-12-04T19:25:25.943Z,97286.27
2022-12-04T19:35:31.366Z,97285.80
2022-12-04T19:45:36.153Z,97295.94
2022-12-04T19:55:41.938Z,97299.29
2022-12-04T20:05:53.880Z,97288.38
2022-12-04T20:16:04.891Z,97302.77
2022-12-04T20:26:14.588Z,97292.34
2022-12-04T20:36:25.142Z,97277.63
2022-12-04T20:46:33.607Z,97283.16
2022-12-04T20:56:42.004Z,97283.55
2022-12-04T21:06:48.080Z,97281.84
2022-12-04T21:16:53.426Z,97282.54
2022-12-04T21:26:58.018Z,97283.21
2022-12-04T21:37:02.407Z,97293.71
2022-12-04T21:47:06.564Z,97294.05
2022-12-04T21:57:11.090Z,97286.72
2022-12-04T22:07:15.062Z,97286.61
2022-12-04T22:17:20.519Z,97290.50
2022-12-04T22:27:24.180Z,97277.84
2022-12-04T22:37:28.458Z,97270.92
2022-12-04T22:47:32.647Z,97266.34
2022-12-04T22:57:36.608Z,97267.12
2022-12-04T23:07:40.714Z,97273.78
2022-12-04T23:17:44.447Z,97271.18
2022-12-04T23:27:49.353Z,97272.37
2022-12-04T23:37:53.319Z,97274.77
2022-12-04T23:47:57.195Z,97275.48
2022-12-04T23:58:00.952Z,97272.95
